Time;durP1;ratioP1;P1;durP2;ratioP2;P2;SDS_P1;SDS_P2;PMS_P1;PMS_P2;Temp;Humidity;BMP_temperature;BMP_pressure;BME280_temperature;BME280_humidity;BME280_pressure;Samples;Min_cycle;Max_cycle;Signal;HPM_P1;HPM_P2
2021/05/25 00:02:12;;;;;;;1.65;1.00;;;;;;;15.70;55.57;101315.64;1832308;77;22168;-58
2021/05/25 00:04:45;;;;;;;2.87;1.10;;;;;;;15.71;55.48;101315.60;1834761;77;22156;-57
2021/05/25 00:07:32;;;;;;;2.45;0.82;;;;;;;15.69;55.49;101325.84;1721223;83;21142;-58
2021/05/25 00:10:06;;;;;;;2.12;0.93;;;;;;;15.72;55.54;101320.01;1834764;77;22571;-58
2021/05/25 00:12:39;;;;;;;1.95;0.90;;;;;;;15.72;55.53;101312.52;1844353;77;22173;-57
2021/05/25 00:15:17;;;;;;;1.85;0.88;;;;;;;15.73;55.47;101319.57;1853130;77;22151;-58
2021/05/25 00:18:04;;;;;;;2.20;0.90;;;;;;;15.61;55.59;101318.89;1802029;78;21152;-59
2021/05/25 00:20:38;;;;;;;2.72;1.35;;;;;;;15.59;55.72;101311.87;1817848;77;38286;-58
2021/05/25 00:23:11;;;;;;;2.55;0.90;;;;;;;15.61;55.78;101314.05;1819220;77;22237;-58
2021/05/25 00:25:56;;;;;;;2.12;0.93;;;;;;;15.57;55.68;101323.82;1761160;80;21154;-58
2021/05/25 00:28:30;;;;;;;1.05;0.68;;;;;;;15.64;55.50;101319.30;1814890;77;22166;-58
2021/05/25 00:31:03;;;;;;;3.17;0.82;;;;;;;15.60;55.47;101317.61;1834725;77;22152;-58
2021/05/25 00:33:36;;;;;;;1.90;0.90;;;;;;;15.54;55.52;101326.53;1813400;77;22661;-58
2021/05/25 00:36:11;;;;;;;1.40;0.82;;;;;;;15.50;55.58;101330.13;1851039;77;22119;-58
2021/05/25 00:38:44;;;;;;;5.78;1.90;;;;;;;15.48;55.61;101331.08;1811576;77;22178;-57
2021/05/25 00:41:17;;;;;;;3.17;1.00;;;;;;;15.47;55.64;101334.17;1834778;77;22168;-58
2021/05/25 00:43:54;;;;;;;3.52;1.45;;;;;;;15.44;55.65;101329.80;1794347;77;28028;-58
2021/05/25 00:46:39;;;;;;;2.75;1.07;;;;;;;15.44;55.69;101339.55;1754714;81;21107;-59
2021/05/25 00:49:12;;;;;;;2.15;0.93;;;;;;;15.50;55.65;101323.97;1805279;77;22190;-57
2021/05/25 00:51:46;;;;;;;1.32;0.80;;;;;;;15.48;55.64;101316.02;1834743;77;22135;-57
2021/05/25 00:54:19;;;;;;;3.45;0.85;;;;;;;15.43;55.57;101312.14;1820706;77;22185;-58
2021/05/25 00:56:52;;;;;;;1.80;0.85;;;;;;;15.42;55.39;101312.18;1828525;77;22123;-57
2021/05/25 00:59:38;;;;;;;1.55;0.98;;;;;;;15.37;55.35;101314.03;1746060;81;21542;-58
2021/05/25 01:02:11;;;;;;;2.15;1.07;;;;;;;15.33;55.41;101307.89;1850844;77;22174;-58
2021/05/25 01:04:44;;;;;;;2.00;1.17;;;;;;;15.24;55.60;101320.86;1810338;77;22169;-58
2021/05/25 01:07:17;;;;;;;1.95;1.15;;;;;;;15.19;55.82;101326.69;1831132;77;22180;-58
2021/05/25 01:09:53;;;;;;;1.55;0.95;;;;;;;15.15;55.84;101337.81;1834764;77;22180;-56
2021/05/25 01:12:29;;;;;;;2.00;0.72;;;;;;;15.10;55.91;101350.70;1846608;77;22198;-58
2021/05/25 01:15:05;;;;;;;2.22;1.07;;;;;;;15.01;55.95;101347.28;1831843;77;22543;-58
2021/05/25 01:17:51;;;;;;;4.78;1.45;;;;;;;14.95;56.16;101345.19;1786062;80;21141;-59
2021/05/25 01:20:28;;;;;;;3.95;1.00;;;;;;;14.98;56.33;101343.38;1853106;77;22183;-58
2021/05/25 01:23:01;;;;;;;2.90;1.22;;;;;;;14.99;56.35;101339.83;1806949;77;22197;-58
2021/05/25 01:25:48;;;;;;;1.52;0.90;;;;;;;14.97;56.40;101340.30;1762051;81;21312;-59
2021/05/25 01:28:21;;;;;;;1.72;0.90;;;;;;;15.01;56.37;101339.33;1817014;77;22186;-58
2021/05/25 01:30:56;;;;;;;1.50;0.93;;;;;;;15.01;56.42;101338.00;1836029;77;22635;-58
2021/05/25 01:33:32;;;;;;;2.85;1.07;;;;;;;15.01;56.52;101329.19;1790617;77;22214;-58
2021/05/25 01:36:18;;;;;;;4.60;1.35;;;;;;;14.99;56.51;101321.70;1731928;82;21158;-61
2021/05/25 01:38:51;;;;;;;2.67;1.00;;;;;;;15.02;56.52;101313.71;1809641;77;22182;-58
2021/05/25 01:41:24;;;;;;;2.37;0.98;;;;;;;15.19;56.16;101314.76;1836721;77;22123;-58
2021/05/25 01:43:57;;;;;;;2.52;1.17;;;;;;;15.13;56.27;101317.08;1808709;77;22186;-58
2021/05/25 01:46:46;;;;;;;1.60;1.00;;;;;;;15.06;56.43;101318.06;1762102;80;21571;-58
2021/05/25 01:49:19;;;;;;;3.12;1.12;;;;;;;14.97;56.68;101312.47;1821106;77;22185;-58
2021/05/25 01:51:52;;;;;;;3.55;1.00;;;;;;;14.93;56.76;101309.88;1829867;77;22131;-57
2021/05/25 01:54:26;;;;;;;2.65;0.90;;;;;;;14.98;56.69;101302.72;1787917;77;22225;-58
2021/05/25 01:57:12;;;;;;;2.27;1.07;;;;;;;14.93;56.78;101312.52;1763157;80;21138;-59
2021/05/25 01:59:46;;;;;;;1.40;0.90;;;;;;;14.93;56.98;101319.15;1833993;77;22113;-58
2021/05/25 02:02:19;;;;;;;1.92;0.98;;;;;;;14.94;56.86;101319.58;1830879;77;22156;-58
2021/05/25 02:04:52;;;;;;;1.70;0.90;;;;;;;14.86;57.15;101315.27;1834779;77;22175;-58
2021/05/25 02:07:25;;;;;;;2.47;0.90;;;;;;;14.87;57.15;101322.78;1813251;77;22212;-58
2021/05/25 02:09:58;;;;;;;1.57;1.00;;;;;;;14.87;57.21;101320.99;1833324;77;22184;-58
2021/05/25 02:12:45;;;;;;;1.92;0.82;;;;;;;14.84;57.29;101325.02;1786562;80;21145;-59
2021/05/25 02:15:19;;;;;;;3.83;1.05;;;;;;;14.89;57.37;101323.64;1853112;77;22175;-58
2021/05/25 02:17:52;;;;;;;2.47;0.95;;;;;;;14.90;57.44;101316.55;1841547;77;22189;-58
2021/05/25 02:20:39;;;;;;;1.92;0.88;;;;;;;14.89;57.42;101312.14;1791233;80;21708;-58
2021/05/25 02:23:12;;;;;;;1.32;0.82;;;;;;;14.96;57.30;101305.42;1836834;77;22189;-57
2021/05/25 02:25:46;;;;;;;2.75;1.00;;;;;;;15.04;57.17;101300.41;1829758;77;22694;-58
2021/05/25 02:28:19;;;;;;;2.37;1.07;;;;;;;15.09;57.20;101302.55;1817350;77;22193;-58
2021/05/25 02:30:52;;;;;;;1.70;0.95;;;;;;;15.10;57.24;101305.63;1827293;77;22135;-58
2021/05/25 02:33:26;;;;;;;2.15;0.90;;;;;;;15.15;57.25;101303.34;1815803;77;22174;-58
2021/05/25 02:35:59;;;;;;;1.57;0.95;;;;;;;15.20;57.20;101302.39;1820425;77;22163;-57
2021/05/25 02:38:45;;;;;;;2.40;1.02;;;;;;;15.18;57.23;101308.17;1770694;80;21150;-59
2021/05/25 02:41:18;;;;;;;3.58;1.20;;;;;;;15.18;57.50;101288.28;1834783;77;22571;-58
2021/05/25 02:43:53;;;;;;;2.72;1.05;;;;;;;15.19;57.69;101286.91;1826517;77;22182;-58
2021/05/25 02:46:38;;;;;;;4.45;1.10;;;;;;;15.17;57.83;101292.70;1788317;80;21170;-60
2021/05/25 02:49:11;;;;;;;1.45;1.02;;;;;;;15.19;58.14;101287.38;1800631;77;22182;-58
2021/05/25 02:51:44;;;;;;;2.25;1.17;;;;;;;15.21;58.49;101285.11;1834774;77;22552;-58
2021/05/25 02:54:30;;;;;;;8.75;1.40;;;;;;;15.27;58.83;101285.45;1671239;86;21608;-58
2021/05/25 02:57:05;;;;;;;3.83;1.10;;;;;;;15.39;59.11;101271.12;1833709;77;22140;-58
2021/05/25 02:59:38;;;;;;;2.75;1.22;;;;;;;15.49;58.89;101270.02;1849854;77;22139;-58
2021/05/25 03:02:11;;;;;;;2.52;1.20;;;;;;;15.61;58.88;101271.59;1850071;77;22119;-58
2021/05/25 03:04:44;;;;;;;2.83;1.02;;;;;;;15.74;58.89;101274.41;1853126;77;22541;-57
2021/05/25 03:07:17;;;;;;;4.65;1.00;;;;;;;15.96;58.57;101268.72;1849583;77;22171;-58
2021/05/25 03:09:50;;;;;;;5.12;1.17;;;;;;;16.13;58.64;101260.39;1834076;77;22516;-58
2021/05/25 03:12:23;;;;;;;4.30;1.45;;;;;;;16.25;58.82;101249.95;1820931;77;22201;-58
2021/05/25 03:15:15;;;;;;;2.47;1.10;;;;;;;16.32;58.74;101243.59;1758286;81;21179;-59
2021/05/25 03:17:48;;;;;;;2.60;1.10;;;;;;;16.50;58.53;101242.77;1842312;77;22186;-58
2021/05/25 03:20:22;;;;;;;2.40;1.12;;;;;;;16.51;58.76;101237.88;1819212;77;22154;-58
2021/05/25 03:22:56;;;;;;;1.62;1.00;;;;;;;16.63;58.59;101249.52;1821890;77;22198;-58
2021/05/25 03:25:29;;;;;;;2.05;0.90;;;;;;;16.69;58.45;101255.61;1834782;77;22575;-57
2021/05/25 03:28:22;;;;;;;3.42;1.77;;;;;;;16.74;58.30;101250.62;1814458;77;22265;-58
2021/05/25 03:30:56;;;;;;;1.75;1.07;;;;;;;16.82;58.37;101245.10;1853116;77;22582;-58
2021/05/25 03:33:29;;;;;;;1.50;1.05;;;;;;;16.93;58.35;101239.51;1833096;77;22177;-59
2021/05/25 03:36:02;;;;;;;2.75;1.12;;;;;;;17.04;58.28;101238.82;1819579;77;22164;-58
2021/05/25 03:38:48;;;;;;;2.52;1.10;;;;;;;17.12;58.17;101245.73;1761446;80;21676;-60
2021/05/25 03:41:21;;;;;;;3.12;1.50;;;;;;;17.27;57.95;101240.47;1826317;77;22174;-58
2021/05/25 03:43:54;;;;;;;4.22;1.15;;;;;;;17.30;57.90;101248.37;1809316;77;22177;-59
2021/05/25 03:46:27;;;;;;;5.42;1.50;;;;;;;17.36;57.75;101247.73;1819654;77;22582;-58
2021/05/25 03:49:13;;;;;;;2.08;1.07;;;;;;;17.38;57.57;101251.23;1778238;80;21142;-59
2021/05/25 03:51:46;;;;;;;5.58;2.62;;;;;;;17.47;57.46;101247.91;1820473;77;22139;-58
2021/05/25 03:54:24;;;;;;;2.42;1.47;;;;;;;17.50;57.29;101259.80;1804764;77;22193;-58
2021/05/25 03:56:58;;;;;;;1.65;1.12;;;;;;;17.52;57.29;101257.97;1817158;77;22119;-58
2021/05/25 03:59:29;;;;;;;2.45;1.12;;;;;;;17.56;57.22;101248.10;1819891;77;22175;-57
2021/05/25 04:02:16;;;;;;;1.37;0.90;;;;;;;17.58;57.29;101250.27;1791340;80;21256;-58
2021/05/25 04:04:49;;;;;;;2.83;1.02;;;;;;;17.66;57.04;101243.80;1819256;77;22649;-58
2021/05/25 04:07:22;;;;;;;2.60;1.00;;;;;;;17.68;56.96;101255.28;1814842;77;22218;-57
2021/05/25 04:09:55;;;;;;;1.65;0.90;;;;;;;17.73;56.90;101252.51;1817311;77;22186;-57
2021/05/25 04:12:48;;;;;;;2.40;1.00;;;;;;;17.75;56.70;101245.35;1811045;77;22271;-57
2021/05/25 04:15:24;;;;;;;2.55;1.00;;;;;;;17.80;56.68;101250.53;1819517;77;22150;-58
2021/05/25 04:17:57;;;;;;;2.72;1.25;;;;;;;17.83;56.57;101245.12;1815323;77;22167;-58
2021/05/25 04:20:31;;;;;;;3.98;1.30;;;;;;;17.87;56.57;101250.78;1834777;77;22179;-57
2021/05/25 04:23:04;;;;;;;3.65;1.40;;;;;;;17.92;56.54;101247.97;1819728;77;22167;-58
2021/05/25 04:25:57;;;;;;;5.58;1.37;;;;;;;17.98;56.50;101246.46;1820707;77;22188;-58
2021/05/25 04:28:30;;;;;;;2.37;1.12;;;;;;;18.04;56.44;101252.98;1820301;77;22171;-58
2021/05/25 04:31:03;;;;;;;1.37;0.80;;;;;;;18.09;56.23;101248.39;1823746;77;22175;-57
2021/05/25 04:33:37;;;;;;;1.92;0.93;;;;;;;18.15;56.24;101250.45;1812625;77;22166;-57
2021/05/25 04:36:10;;;;;;;3.72;1.00;;;;;;;18.17;56.14;101249.48;1822612;77;22153;-58
2021/05/25 04:38:57;;;;;;;1.98;0.80;;;;;;;18.18;56.02;101254.36;1763876;80;21581;-59
2021/05/25 04:41:30;;;;;;;4.58;0.90;;;;;;;18.24;55.95;101252.38;1851270;77;22674;-58
2021/05/25 04:44:04;;;;;;;4.70;1.15;;;;;;;18.26;55.86;101251.87;1807325;77;22199;-57
2021/05/25 04:46:37;;;;;;;1.57;0.78;;;;;;;18.30;55.64;101258.44;1832706;77;22183;-58
2021/05/25 04:49:10;;;;;;;2.95;0.90;;;;;;;18.28;55.57;101263.83;1790997;77;22593;-58
2021/05/25 04:51:56;;;;;;;4.33;1.17;;;;;;;18.25;55.56;101271.44;1760926;81;21271;-59
2021/05/25 04:54:29;;;;;;;4.78;1.15;;;;;;;18.27;55.76;101274.08;1826385;77;22139;-58
2021/05/25 04:57:03;;;;;;;4.17;0.95;;;;;;;18.36;55.80;101264.92;1820039;77;22134;-58
2021/05/25 04:59:36;;;;;;;2.83;0.90;;;;;;;18.46;55.91;101262.39;1852949;77;22155;-57
2021/05/25 05:02:10;;;;;;;1.77;1.22;;;;;;;18.59;55.89;101266.86;1829109;77;22163;-58
2021/05/25 05:04:56;;;;;;;2.10;0.95;;;;;;;18.69;56.05;101275.43;1745236;80;21601;-59
2021/05/25 05:07:30;;;;;;;4.15;0.98;;;;;;;19.01;55.58;101266.86;1818003;77;22629;-58
2021/05/25 05:10:05;;;;;;;2.72;1.00;;;;;;;19.17;55.22;101268.58;1813513;77;22166;-58
2021/05/25 05:12:51;;;;;;;2.80;0.85;;;;;;;19.26;54.92;101264.70;1775419;80;21568;-59
2021/05/25 05:15:25;;;;;;;2.33;0.80;;;;;;;19.45;54.88;101260.92;1818893;77;22186;-58
2021/05/25 05:17:58;;;;;;;1.80;1.02;;;;;;;19.58;54.60;101267.58;1792624;77;22690;-58
2021/05/25 05:20:44;;;;;;;2.45;0.90;;;;;;;19.66;54.33;101281.98;1697297;84;21200;-58
2021/05/25 05:23:17;;;;;;;2.72;1.10;;;;;;;19.82;54.28;101283.63;1808557;77;22174;-58
2021/05/25 05:25:50;;;;;;;1.82;1.07;;;;;;;20.01;54.45;101281.17;1827272;77;22131;-57
2021/05/25 05:28:43;;;;;;;2.60;1.15;;;;;;;20.27;54.00;101262.40;1818494;77;22262;-58
2021/05/25 05:31:29;;;;;;;4.00;1.60;;;;;;;20.49;53.38;101255.29;1817012;77;27942;-58
2021/05/25 05:34:03;;;;;;;2.67;1.12;;;;;;;20.64;53.53;101251.57;1807667;77;23122;-58
2021/05/25 05:36:36;;;;;;;2.52;1.27;;;;;;;20.88;53.67;101248.86;1832618;77;22131;-58
2021/05/25 05:39:09;;;;;;;3.75;1.22;;;;;;;21.21;53.15;101242.52;1806055;77;22170;-58
2021/05/25 05:41:42;;;;;;;2.00;1.10;;;;;;;21.46;52.66;101238.78;1820273;77;22575;-58
2021/05/25 05:44:28;;;;;;;3.20;1.30;;;;;;;21.68;51.62;101244.53;1731865;83;21439;-58
2021/05/25 05:47:01;;;;;;;2.62;1.02;;;;;;;21.95;50.97;101229.48;1834004;77;22136;-58
2021/05/25 05:49:34;;;;;;;2.87;1.67;;;;;;;22.25;50.58;101221.80;1834730;77;22136;-58
2021/05/25 05:52:20;;;;;;;3.15;1.30;;;;;;;22.43;50.61;101228.54;1732091;81;21295;-58
2021/05/25 05:54:53;;;;;;;3.45;1.35;;;;;;;22.81;49.85;101224.45;1832488;77;22131;-58
2021/05/25 05:57:26;;;;;;;2.98;1.47;;;;;;;23.01;49.15;101219.41;1812536;77;22661;-57
2021/05/25 06:00:14;;;;;;;2.10;1.50;;;;;;;23.14;48.31;101222.81;1746743;81;21107;-59
2021/05/25 06:02:47;;;;;;;4.17;1.52;;;;;;;23.41;48.01;101216.50;1824575;77;22166;-58
2021/05/25 06:05:20;;;;;;;2.42;1.62;;;;;;;23.62;47.70;101209.59;1821945;77;22154;-58
2021/05/25 06:07:53;;;;;;;2.90;1.82;;;;;;;23.78;46.69;101220.83;1823208;77;22167;-58
2021/05/25 06:10:42;;;;;;;3.35;1.75;;;;;;;23.91;46.60;101217.87;1761604;81;21289;-58
2021/05/25 06:13:14;;;;;;;2.92;1.67;;;;;;;24.09;46.20;101211.97;1821873;77;22152;-58
2021/05/25 06:15:47;;;;;;;2.62;1.70;;;;;;;24.30;45.50;101217.07;1831911;77;22162;-58
2021/05/25 06:18:35;;;;;;;3.90;2.15;;;;;;;24.41;45.18;101225.89;1772917;80;21151;-58
2021/05/25 06:21:08;;;;;;;2.83;1.65;;;;;;;24.50;45.03;101224.88;1833572;77;22164;-57
2021/05/25 06:23:41;;;;;;;2.60;2.02;;;;;;;24.61;44.93;101216.67;1802195;77;22201;-58
2021/05/25 06:26:27;;;;;;;4.12;2.08;;;;;;;24.75;45.12;101225.31;1761753;81;21174;-58
2021/05/25 06:29:00;;;;;;;3.10;1.95;;;;;;;25.03;45.08;101223.66;1804480;77;22630;-58
2021/05/25 06:31:33;;;;;;;2.95;1.92;;;;;;;25.39;44.89;101235.38;1819230;77;22612;-57
2021/05/25 06:34:06;;;;;;;2.90;2.00;;;;;;;25.66;43.97;101227.05;1824362;77;22170;-58
2021/05/25 06:36:39;;;;;;;3.02;1.98;;;;;;;25.76;43.83;101234.06;1848695;77;22166;-57
2021/05/25 06:39:12;;;;;;;3.12;1.98;;;;;;;25.97;43.49;101226.44;1822944;77;22170;-58
2021/05/25 06:41:46;;;;;;;2.90;1.80;;;;;;;26.16;42.78;101228.00;1829839;77;22136;-58
2021/05/25 06:44:33;;;;;;;4.30;2.37;;;;;;;26.24;42.61;101227.02;1761754;81;21165;-59
2021/05/25 06:47:06;;;;;;;3.17;2.20;;;;;;;26.58;42.86;101218.03;1832085;77;22158;-58
2021/05/25 06:49:39;;;;;;;4.22;2.42;;;;;;;26.91;42.15;101224.00;1817531;77;22568;-58
2021/05/25 06:52:25;;;;;;;2.90;2.30;;;;;;;27.08;41.37;101229.59;1788090;80;21136;-59
2021/05/25 06:55:00;;;;;;;4.83;2.22;;;;;;;27.08;40.40;101221.48;1820382;77;22187;-58
2021/05/25 06:57:33;;;;;;;3.75;2.37;;;;;;;27.01;40.23;101223.25;1826188;77;22206;-58
2021/05/25 07:00:09;;;;;;;5.22;2.50;;;;;;;26.94;40.17;101215.19;1826790;77;22546;-58
2021/05/25 07:02:42;;;;;;;3.75;2.62;;;;;;;26.94;40.25;101222.41;1810067;77;28074;-57
2021/05/25 07:05:15;;;;;;;3.30;2.27;;;;;;;26.91;39.99;101213.20;1853008;77;22179;-57
2021/05/25 07:07:48;;;;;;;3.75;2.30;;;;;;;26.84;39.66;101216.31;1816114;77;22150;-58
2021/05/25 07:10:22;;;;;;;5.28;2.45;;;;;;;26.76;39.90;101214.58;1834724;77;22179;-58
2021/05/25 07:13:12;;;;;;;4.47;2.25;;;;;;;26.78;40.30;101225.26;1778835;80;21180;-58
2021/05/25 07:15:42;;;;;;;3.92;2.58;;;;;;;26.90;40.19;101219.06;1828554;77;22166;-57
2021/05/25 07:18:18;;;;;;;3.10;2.00;;;;;;;27.05;40.38;101220.34;1835211;77;22177;-58
2021/05/25 07:21:05;;;;;;;4.20;1.98;;;;;;;27.22;40.31;101205.16;1793090;80;22500;-58
2021/05/25 07:23:38;;;;;;;2.83;2.10;;;;;;;27.59;40.24;101191.80;1808742;77;22202;-58
2021/05/25 07:26:11;;;;;;;2.60;1.90;;;;;;;27.94;39.85;101191.55;1820628;77;22119;-58
2021/05/25 07:28:44;;;;;;;2.58;1.90;;;;;;;28.25;39.41;101193.39;1809828;77;22186;-58
2021/05/25 07:31:18;;;;;;;6.80;2.75;;;;;;;28.56;39.42;101188.84;1853147;77;22155;-57
2021/05/25 07:33:51;;;;;;;3.67;2.33;;;;;;;28.94;39.21;101187.76;1806816;77;22187;-58
2021/05/25 07:36:46;;;;;;;2.27;1.80;;;;;;;29.40;38.73;101190.09;1832878;77;22204;-59
2021/05/25 07:39:19;;;;;;;5.30;2.52;;;;;;;29.77;38.28;101188.99;1805470;77;28481;-58
2021/05/25 07:42:06;;;;;;;2.27;1.85;;;;;;;29.91;37.57;101186.50;1793155;80;21546;-59
2021/05/25 07:44:39;;;;;;;2.92;2.02;;;;;;;30.25;37.20;101198.66;1829337;77;22128;-58
2021/05/25 07:47:12;;;;;;;2.40;1.75;;;;;;;30.50;37.08;101201.55;1822985;77;22159;-58
2021/05/25 07:49:45;;;;;;;3.27;1.82;;;;;;;30.75;36.75;101205.42;1820977;77;22577;-58
2021/05/25 07:52:18;;;;;;;3.00;1.92;;;;;;;31.06;36.12;101196.86;1824864;77;22170;-58
2021/05/25 07:54:51;;;;;;;2.45;1.80;;;;;;;31.15;34.37;101191.98;1824670;77;22170;-58
2021/05/25 07:57:24;;;;;;;2.37;1.77;;;;;;;31.25;35.50;101188.47;1829527;77;22194;-57
2021/05/25 07:59:57;;;;;;;6.17;1.98;;;;;;;31.63;35.21;101185.55;1828892;77;22143;-57
2021/05/25 08:02:30;;;;;;;3.30;1.50;;;;;;;31.95;34.80;101176.88;1820806;77;22174;-58
2021/05/25 08:05:11;;;;;;;4.15;1.92;;;;;;;32.31;34.80;101183.56;1812427;77;22162;-58
2021/05/25 08:07:44;;;;;;;2.83;1.80;;;;;;;32.65;33.96;101178.69;1821287;77;22158;-57
2021/05/25 08:10:18;;;;;;;5.15;2.55;;;;;;;32.80;33.46;101169.55;1819033;77;22186;-57
2021/05/25 08:12:51;;;;;;;9.35;3.52;;;;;;;32.96;32.96;101167.61;1823667;77;22590;-58
2021/05/25 08:15:39;;;;;;;3.80;2.05;;;;;;;32.82;31.87;101178.45;1755623;81;21126;-60
2021/05/25 08:18:23;;;;;;;2.95;1.85;;;;;;;32.76;33.04;101160.83;1819072;77;22190;-58
2021/05/25 08:20:47;;;;;;;5.15;2.33;;;;;;;33.14;32.77;101177.25;1833829;77;22150;-58
2021/05/25 08:23:32;;;;;;;11.80;4.80;;;;;;;33.34;32.12;101180.29;1793241;80;21613;-59
2021/05/25 08:26:05;;;;;;;8.18;2.45;;;;;;;33.37;31.53;101181.84;1851746;77;22535;-58
2021/05/25 08:28:38;;;;;;;3.65;1.90;;;;;;;33.39;31.73;101188.04;1812834;77;22186;-58
2021/05/25 08:31:11;;;;;;;3.65;1.80;;;;;;;33.57;31.64;101178.56;1822598;77;22167;-57
2021/05/25 08:33:45;;;;;;;1.70;1.32;;;;;;;33.76;30.66;101180.36;1806401;77;22682;-58
2021/05/25 08:36:34;;;;;;;2.25;1.72;;;;;;;33.80;31.79;101178.17;1762042;80;21127;-58
2021/05/25 08:39:07;;;;;;;4.47;1.60;;;;;;;33.86;29.93;101176.69;1792190;77;22634;-58
2021/05/25 08:41:41;;;;;;;3.80;2.00;;;;;;;33.69;30.36;101179.23;1820372;77;22116;-58
2021/05/25 08:44:14;;;;;;;3.52;1.70;;;;;;;33.51;29.71;101165.02;1784223;77;22201;-58
2021/05/25 08:46:47;;;;;;;2.60;1.57;;;;;;;33.20;30.07;101166.63;1853104;77;22175;-58
2021/05/25 08:49:20;;;;;;;3.45;1.82;;;;;;;33.06;30.10;101168.45;1802697;77;22189;-58
2021/05/25 08:51:53;;;;;;;1.85;1.42;;;;;;;32.57;30.17;101161.70;1835072;77;22115;-58
2021/05/25 08:54:42;;;;;;;2.10;1.50;;;;;;;32.05;30.51;101169.59;1766147;80;21134;-59
2021/05/25 08:57:15;;;;;;;2.22;1.57;;;;;;;31.69;31.01;101177.36;1823298;77;22162;-58
2021/05/25 08:59:48;;;;;;;4.35;1.65;;;;;;;31.49;31.38;101181.87;1820622;77;22185;-57
2021/05/25 09:02:21;;;;;;;2.15;1.50;;;;;;;31.44;31.24;101189.05;1814794;77;22582;-58
2021/05/25 09:05:07;;;;;;;3.00;1.75;;;;;;;31.42;31.19;101189.69;1834757;77;22151;-58
2021/05/25 09:07:57;;;;;;;1.50;1.30;;;;;;;31.33;31.59;101187.30;1782358;80;21139;-58
2021/05/25 09:10:42;;;;;;;1.67;1.30;;;;;;;31.35;31.39;101172.22;1824900;77;22550;-58
2021/05/25 09:13:33;;;;;;;3.60;1.52;;;;;;;31.55;31.59;101172.65;1818787;77;22285;-60
2021/05/25 09:16:12;;;;;;;2.02;1.45;;;;;;;31.74;31.46;101167.80;1814668;77;22197;-57
2021/05/25 09:19:05;;;;;;;1.87;1.30;;;;;;;32.16;31.45;101169.48;1798473;77;22253;-58
2021/05/25 09:21:38;;;;;;;6.67;1.67;;;;;;;32.57;31.52;101165.27;1824954;77;22158;-58
2021/05/25 09:24:12;;;;;;;6.58;1.90;;;;;;;33.25;31.48;101151.69;1823213;77;22178;-58
2021/05/25 09:26:48;;;;;;;3.80;1.60;;;;;;;33.78;30.66;101146.06;1853073;77;22178;-57
2021/05/25 09:29:21;;;;;;;3.05;1.60;;;;;;;34.31;30.51;101144.94;1805889;77;22212;-58
2021/05/25 09:32:13;;;;;;;1.72;1.40;;;;;;;34.78;28.69;101156.97;1778293;80;21154;-59
2021/05/25 09:34:44;;;;;;;3.72;1.62;;;;;;;34.68;27.22;101149.37;1837325;77;28410;-57
2021/05/25 09:37:17;;;;;;;3.45;1.57;;;;;;;34.39;28.49;101144.50;1843723;77;22132;-58
2021/05/25 09:39:52;;;;;;;1.57;1.40;;;;;;;34.49;28.13;101143.59;1832474;77;22139;-58
2021/05/25 09:42:38;;;;;;;2.58;1.10;;;;;;;34.38;27.61;101146.03;1788292;80;21165;-59
2021/05/25 09:45:14;;;;;;;1.95;1.00;;;;;;;34.24;28.76;101144.69;1834727;77;22176;-58
2021/05/25 09:47:52;;;;;;;1.98;1.17;;;;;;;34.82;29.85;101139.73;1812133;77;22201;-58
2021/05/25 09:50:40;;;;;;;1.57;1.20;;;;;;;35.45;28.69;101133.62;1752448;81;21562;-58
2021/05/25 09:53:20;;;;;;;1.95;1.40;;;;;;;35.64;25.83;101122.06;1836715;77;22189;-58
2021/05/25 09:55:54;;;;;;;1.70;1.30;;;;;;;35.33;25.99;101115.25;1811757;77;38378;-58
2021/05/25 09:58:40;;;;;;;3.50;1.40;;;;;;;35.15;25.97;101115.34;1768948;80;21160;-58
2021/05/25 10:01:13;;;;;;;2.60;1.32;;;;;;;35.05;27.87;101104.52;1834704;77;22180;-58
2021/05/25 10:03:52;;;;;;;1.22;1.12;;;;;;;35.21;26.40;101109.74;1829073;77;22170;-58
2021/05/25 10:06:25;;;;;;;2.65;0.90;;;;;;;34.88;26.62;101112.27;1823140;77;22135;-58
2021/05/25 10:08:58;;;;;;;2.77;1.00;;;;;;;35.03;28.22;101097.52;1807346;77;22593;-57
2021/05/25 10:11:31;;;;;;;1.87;1.15;;;;;;;35.73;28.70;101086.36;1825646;77;22205;-57
2021/05/25 10:14:04;;;;;;;2.17;1.37;;;;;;;36.51;27.72;101077.01;1799348;77;22594;-58
2021/05/25 10:16:40;;;;;;;2.83;1.15;;;;;;;36.63;26.21;101067.93;1818497;77;22594;-58
2021/05/25 10:21:46;;;;;;;2.20;1.20;;;;;;;36.38;25.58;101068.79;1834703;77;22180;-57
2021/05/25 10:24:19;;;;;;;1.22;0.98;;;;;;;36.56;25.39;101056.78;1811506;77;22697;-58
2021/05/25 10:27:06;;;;;;;2.10;1.10;;;;;;;36.48;25.60;101060.91;1722665;83;21300;-58
2021/05/25 10:29:39;;;;;;;1.25;0.85;;;;;;;36.65;25.71;101055.75;1792326;77;22172;-58
2021/05/25 10:32:21;;;;;;;2.35;1.05;;;;;;;36.83;26.28;101058.27;1827669;77;22139;-58
2021/05/25 10:35:08;;;;;;;1.82;1.22;;;;;;;37.16;25.71;101060.91;1709674;83;21633;-57
2021/05/25 10:37:41;;;;;;;1.27;1.10;;;;;;;37.01;25.16;101051.20;1825827;77;22190;-58
2021/05/25 10:40:14;;;;;;;1.50;1.10;;;;;;;37.09;25.15;101046.72;1834763;77;22535;-58
2021/05/25 10:42:48;;;;;;;2.10;1.15;;;;;;;37.36;25.30;101050.87;1817033;77;22198;-58
2021/05/25 10:45:40;;;;;;;1.37;1.00;;;;;;;37.79;26.23;101048.58;1827740;77;22260;-58
2021/05/25 10:48:59;;;;;;;2.67;1.10;;;;;;;38.50;25.95;101046.63;1814774;77;22186;-58
2021/05/25 10:51:53;;;;;;;2.30;1.22;;;;;;;39.19;25.27;101040.02;1808306;77;22150;-58
2021/05/25 10:54:46;;;;;;;3.42;1.37;;;;;;;39.70;23.97;101035.53;1824934;77;22143;-58
2021/05/25 10:57:47;;;;;;;2.72;0.90;;;;;;;39.99;24.04;101036.45;1786444;80;21212;-58
2021/05/25 11:00:34;;;;;;;1.57;1.05;;;;;;;40.40;23.81;101029.39;1811780;77;22154;-58
2021/05/25 11:03:22;;;;;;;2.10;0.90;;;;;;;40.80;23.09;101024.15;1819767;77;22178;-58
2021/05/25 11:06:08;;;;;;;4.22;1.17;;;;;;;40.98;22.63;101024.10;1761938;80;21570;-57
2021/05/25 11:08:42;;;;;;;1.42;1.00;;;;;;;41.14;22.51;101020.16;1812372;77;22194;-58
2021/05/25 11:11:18;;;;;;;1.82;1.10;;;;;;;41.13;21.57;101011.55;1834674;77;22167;-57
2021/05/25 11:13:52;;;;;;;1.72;0.88;;;;;;;40.95;21.67;101007.95;1810132;77;22178;-57
2021/05/25 11:16:40;;;;;;;2.67;1.30;;;;;;;40.79;21.44;101011.41;1762069;81;21138;-58
2021/05/25 11:25:00;;;;;;;4.20;1.30;;;;;;;40.86;21.35;101008.12;1930026;74;22132;-58
2021/05/25 11:27:47;;;;;;;3.72;1.50;;;;;;;40.68;20.31;101002.33;1845838;77;22203;-58
2021/05/25 11:30:37;;;;;;;3.52;1.57;;;;;;;39.35;22.08;101010.05;1833740;77;22176;-58
2021/05/25 11:33:32;;;;;;;3.50;1.20;;;;;;;39.21;23.63;101006.78;1778923;80;21593;-58
2021/05/25 11:36:06;;;;;;;6.55;1.47;;;;;;;39.69;22.80;101000.23;1834621;77;22156;-58
2021/05/25 11:38:39;;;;;;;3.60;1.20;;;;;;;39.46;22.54;101000.96;1812701;77;22190;-58
2021/05/25 11:41:16;;;;;;;2.52;1.35;;;;;;;39.63;22.32;101002.93;1832782;77;22610;-58
2021/05/25 11:44:08;;;;;;;5.75;1.90;;;;;;;39.53;22.62;101000.48;1810575;77;22178;-58
2021/05/25 11:46:46;;;;;;;7.40;1.42;;;;;;;39.53;23.03;100990.84;1853084;77;22131;-58
2021/05/25 11:49:19;;;;;;;2.70;1.07;;;;;;;39.54;23.03;100989.28;1821252;77;22162;-58
2021/05/25 11:51:52;;;;;;;6.40;1.52;;;;;;;39.20;21.61;100991.31;1834826;77;22195;-58
2021/05/25 11:54:38;;;;;;;4.25;1.37;;;;;;;37.53;23.95;101000.88;1761966;81;21131;-59
2021/05/25 11:57:38;;;;;;;6.92;1.62;;;;;;;36.64;24.91;100997.83;1832458;77;22568;-58
2021/05/25 12:00:23;;;;;;;2.27;1.10;;;;;;;36.80;25.57;100993.33;1833821;77;22120;-58
2021/05/25 12:02:59;;;;;;;1.85;1.10;;;;;;;36.61;24.89;100996.31;1822333;77;22190;-57
2021/05/25 12:05:33;;;;;;;3.02;1.40;;;;;;;36.15;26.22;100996.03;1834702;77;22155;-57
2021/05/25 12:08:10;;;;;;;2.47;1.47;;;;;;;36.59;25.77;100992.89;1813008;77;22174;-58
2021/05/25 12:10:56;;;;;;;2.90;1.20;;;;;;;36.75;25.83;100995.22;1762165;81;21173;-59
2021/05/25 12:13:29;;;;;;;1.72;1.05;;;;;;;36.43;25.53;100989.62;1815057;77;22182;-57
2021/05/25 12:16:04;;;;;;;2.55;1.27;;;;;;;35.91;26.11;100986.75;1834673;77;22143;-58
2021/05/25 12:18:37;;;;;;;1.55;1.00;;;;;;;35.65;26.21;100990.52;1813040;77;22630;-58
2021/05/25 12:21:11;;;;;;;4.05;1.35;;;;;;;35.29;26.92;100984.77;1834689;77;22598;-57